sensor_id;sensor_type;location;lat;lon;timestamp;temperature;humidity
4615;DHT22;2320;51.362;6.946;2022-11-20T00:01:35;-0.40;99.90
4615;DHT22;2320;51.362;6.946;2022-11-20T00:04:00;-0.30;99.90
4615;DHT22;2320;51.362;6.946;2022-11-20T00:06:27;-0.20;99.90
4615;DHT22;2320;51.362;6.946;2022-11-20T00:08:56;-0.10;99.90
4615;DHT22;2320;51.362;6.946;2022-11-20T00:11:22;-0.10;99.90
4615;DHT22;2320;51.362;6.946;2022-11-20T00:13:49;0.10;99.90
4615;DHT22;2320;51.362;6.946;2022-11-20T00:16:16;0.10;99.90
4615;DHT22;2320;51.362;6.946;2022-11-20T00:18:42;0.20;99.90
4615;DHT22;2320;51.362;6.946;2022-11-20T00:21:10;0.20;99.90
4615;DHT22;2320;51.362;6.946;2022-11-20T00:23:36;0.30;99.90
4615;DHT22;2320;51.362;6.946;2022-11-20T00:26:05;0.40;99.90
4615;DHT22;2320;51.362;6.946;2022-11-20T00:28:31;0.30;99.90
4615;DHT22;2320;51.362;6.946;2022-11-20T00:31:03;0.40;99.90
4615;DHT22;2320;51.362;6.946;2022-11-20T00:33:29;0.30;99.90
4615;DHT22;2320;51.362;6.946;2022-11-20T00:35:59;0.40;99.90
4615;DHT22;2320;51.362;6.946;2022-11-20T00:38:24;0.50;99.90
4615;DHT22;2320;51.362;6.946;2022-11-20T00:40:54;0.70;99.90
4615;DHT22;2320;51.362;6.946;2022-11-20T00:43:20;0.70;99.90
4615;DHT22;2320;51.362;6.946;2022-11-20T00:45:45;0.70;99.90
4615;DHT22;2320;51.362;6.946;2022-11-20T00:48:11;0.80;99.90
4615;DHT22;2320;51.362;6.946;2022-11-20T00:50:36;0.70;99.90
4615;DHT22;2320;51.362;6.946;2022-11-20T00:53:02;0.70;99.90
4615;DHT22;2320;51.362;6.946;2022-11-20T00:55:27;0.70;99.90
4615;DHT22;2320;51.362;6.946;2022-11-20T00:57:53;0.80;99.90
4615;DHT22;2320;51.362;6.946;2022-11-20T01:00:18;0.80;99.90
4615;DHT22;2320;51.362;6.946;2022-11-20T01:02:44;0.80;99.90
4615;DHT22;2320;51.362;6.946;2022-11-20T01:05:09;0.90;99.90
4615;DHT22;2320;51.362;6.946;2022-11-20T01:07:35;0.90;99.90
4615;DHT22;2320;51.362;6.946;2022-11-20T01:10:00;0.90;99.90
4615;DHT22;2320;51.362;6.946;2022-11-20T01:12:26;1.10;99.90
4615;DHT22;2320;51.362;6.946;2022-11-20T01:14:51;1.10;99.90
4615;DHT22;2320;51.362;6.946;2022-11-20T01:17:17;1.00;99.90
4615;DHT22;2320;51.362;6.946;2022-11-20T01:19:42;1.10;99.90
4615;DHT22;2320;51.362;6.946;2022-11-20T01:22:07;1.00;99.90
4615;DHT22;2320;51.362;6.946;2022-11-20T01:24:33;0.90;99.90
4615;DHT22;2320;51.362;6.946;2022-11-20T01:26:58;0.90;99.90
4615;DHT22;2320;51.362;6.946;2022-11-20T01:29:24;0.80;99.90
4615;DHT22;2320;51.362;6.946;2022-11-20T01:31:50;0.90;99.90
4615;DHT22;2320;51.362;6.946;2022-11-20T01:34:17;0.80;99.90
4615;DHT22;2320;51.362;6.946;2022-11-20T01:36:43;0.90;99.90
4615;DHT22;2320;51.362;6.946;2022-11-20T01:39:10;0.80;99.90
4615;DHT22;2320;51.362;6.946;2022-11-20T01:41:36;0.80;99.90
4615;DHT22;2320;51.362;6.946;2022-11-20T01:44:22;0.90;99.90
4615;DHT22;2320;51.362;6.946;2022-11-20T01:46:52;0.90;99.90
4615;DHT22;2320;51.362;6.946;2022-11-20T01:49:20;1.10;99.90
4615;DHT22;2320;51.362;6.946;2022-11-20T01:51:53;1.10;99.90
4615;DHT22;2320;51.362;6.946;2022-11-20T01:54:22;1.00;99.90
4615;DHT22;2320;51.362;6.946;2022-11-20T01:56:50;1.00;99.90
4615;DHT22;2320;51.362;6.946;2022-11-20T01:59:17;1.30;99.90
4615;DHT22;2320;51.362;6.946;2022-11-20T02:01:43;1.20;99.90
4615;DHT22;2320;51.362;6.946;2022-11-20T02:04:09;1.30;99.90
4615;DHT22;2320;51.362;6.946;2022-11-20T02:06:36;1.40;99.90
4615;DHT22;2320;51.362;6.946;2022-11-20T02:09:03;1.50;99.90
4615;DHT22;2320;51.362;6.946;2022-11-20T02:11:29;1.50;99.90
4615;DHT22;2320;51.362;6.946;2022-11-20T02:13:55;1.50;99.90
4615;DHT22;2320;51.362;6.946;2022-11-20T02:16:23;1.50;99.90
4615;DHT22;2320;51.362;6.946;2022-11-20T02:18:49;1.30;99.90
4615;DHT22;2320;51.362;6.946;2022-11-20T02:21:21;1.40;99.90
4615;DHT22;2320;51.362;6.946;2022-11-20T02:23:55;1.30;99.90
4615;DHT22;2320;51.362;6.946;2022-11-20T02:26:21;1.40;99.90
4615;DHT22;2320;51.362;6.946;2022-11-20T02:28:48;1.40;99.90
4615;DHT22;2320;51.362;6.946;2022-11-20T02:31:13;1.60;99.90
4615;DHT22;2320;51.362;6.946;2022-11-20T02:33:39;1.60;99.90
4615;DHT22;2320;51.362;6.946;2022-11-20T02:36:04;1.60;99.90
4615;DHT22;2320;51.362;6.946;2022-11-20T02:38:31;1.60;99.90
4615;DHT22;2320;51.362;6.946;2022-11-20T02:40:56;1.60;99.90
4615;DHT22;2320;51.362;6.946;2022-11-20T02:43:22;1.60;99.90
4615;DHT22;2320;51.362;6.946;2022-11-20T02:45:47;1.60;99.90
4615;DHT22;2320;51.362;6.946;2022-11-20T02:48:13;1.60;99.90
4615;DHT22;2320;51.362;6.946;2022-11-20T02:50:38;1.60;99.90
4615;DHT22;2320;51.362;6.946;2022-11-20T02:53:05;1.60;99.90
4615;DHT22;2320;51.362;6.946;2022-11-20T02:55:30;1.70;99.90
4615;DHT22;2320;51.362;6.946;2022-11-20T02:57:56;1.70;99.90
4615;DHT22;2320;51.362;6.946;2022-11-20T03:00:21;1.80;99.90
4615;DHT22;2320;51.362;6.946;2022-11-20T03:02:47;1.80;99.90
4615;DHT22;2320;51.362;6.946;2022-11-20T03:05:12;1.90;99.90
4615;DHT22;2320;51.362;6.946;2022-11-20T03:07:38;1.80;99.90
4615;DHT22;2320;51.362;6.946;2022-11-20T03:10:04;1.80;99.90
4615;DHT22;2320;51.362;6.946;2022-11-20T03:12:29;1.80;99.90
4615;DHT22;2320;51.362;6.946;2022-11-20T03:14:55;2.00;99.90
4615;DHT22;2320;51.362;6.946;2022-11-20T03:17:20;2.10;99.90
4615;DHT22;2320;51.362;6.946;2022-11-20T03:19:46;2.10;99.90
4615;DHT22;2320;51.362;6.946;2022-11-20T03:22:11;2.10;99.90
4615;DHT22;2320;51.362;6.946;2022-11-20T03:24:37;2.10;99.90
4615;DHT22;2320;51.362;6.946;2022-11-20T03:27:02;2.10;99.90
4615;DHT22;2320;51.362;6.946;2022-11-20T03:29:28;2.00;99.90
4615;DHT22;2320;51.362;6.946;2022-11-20T03:31:53;2.10;99.90
4615;DHT22;2320;51.362;6.946;2022-11-20T03:34:19;2.10;99.90
4615;DHT22;2320;51.362;6.946;2022-11-20T03:36:46;2.20;99.90
4615;DHT22;2320;51.362;6.946;2022-11-20T03:39:12;2.10;99.90
4615;DHT22;2320;51.362;6.946;2022-11-20T03:41:39;2.10;99.90
4615;DHT22;2320;51.362;6.946;2022-11-20T03:44:06;2.10;99.90
4615;DHT22;2320;51.362;6.946;2022-11-20T03:46:31;2.00;99.90
4615;DHT22;2320;51.362;6.946;2022-11-20T03:48:57;2.00;99.90
4615;DHT22;2320;51.362;6.946;2022-11-20T03:51:23;2.00;99.90
4615;DHT22;2320;51.362;6.946;2022-11-20T03:53:50;2.10;99.90
4615;DHT22;2320;51.362;6.946;2022-11-20T03:56:16;2.10;99.90
4615;DHT22;2320;51.362;6.946;2022-11-20T03:58:42;2.10;99.90
4615;DHT22;2320;51.362;6.946;2022-11-20T04:01:30;2.00;99.90
4615;DHT22;2320;51.362;6.946;2022-11-20T04:03:54;2.20;99.90
4615;DHT22;2320;51.362;6.946;2022-11-20T04:06:22;2.10;99.90
4615;DHT22;2320;51.362;6.946;2022-11-20T04:08:47;2.20;99.90
4615;DHT22;2320;51.362;6.946;2022-11-20T04:11:23;2.10;99.90
4615;DHT22;2320;51.362;6.946;2022-11-20T04:13:50;2.20;99.90
4615;DHT22;2320;51.362;6.946;2022-11-20T04:16:16;2.10;99.90
4615;DHT22;2320;51.362;6.946;2022-11-20T04:18:41;2.20;99.90
4615;DHT22;2320;51.362;6.946;2022-11-20T04:21:07;2.20;99.90
4615;DHT22;2320;51.362;6.946;2022-11-20T04:23:32;2.40;99.90
4615;DHT22;2320;51.362;6.946;2022-11-20T04:26:05;2.30;99.90
4615;DHT22;2320;51.362;6.946;2022-11-20T04:28:30;2.40;99.90
4615;DHT22;2320;51.362;6.946;2022-11-20T04:31:30;2.40;99.90
4615;DHT22;2320;51.362;6.946;2022-11-20T04:33:48;2.40;99.90
4615;DHT22;2320;51.362;6.946;2022-11-20T04:36:23;2.50;99.90
4615;DHT22;2320;51.362;6.946;2022-11-20T04:38:52;2.50;99.90
4615;DHT22;2320;51.362;6.946;2022-11-20T04:41:19;2.60;99.90
4615;DHT22;2320;51.362;6.946;2022-11-20T04:43:48;2.40;99.90
4615;DHT22;2320;51.362;6.946;2022-11-20T04:46:14;2.40;99.90
4615;DHT22;2320;51.362;6.946;2022-11-20T04:48:40;2.50;99.90
4615;DHT22;2320;51.362;6.946;2022-11-20T04:51:05;2.60;99.90
4615;DHT22;2320;51.362;6.946;2022-11-20T04:53:31;2.80;99.90
4615;DHT22;2320;51.362;6.946;2022-11-20T04:56:00;2.50;99.90
4615;DHT22;2320;51.362;6.946;2022-11-20T04:58:26;2.50;99.90
4615;DHT22;2320;51.362;6.946;2022-11-20T05:00:51;2.40;99.90
4615;DHT22;2320;51.362;6.946;2022-11-20T05:03:17;2.40;99.90
4615;DHT22;2320;51.362;6.946;2022-11-20T05:05:42;2.60;99.90
4615;DHT22;2320;51.362;6.946;2022-11-20T05:08:08;2.60;99.90
4615;DHT22;2320;51.362;6.946;2022-11-20T05:10:33;2.60;99.90
4615;DHT22;2320;51.362;6.946;2022-11-20T05:12:59;2.70;99.90
4615;DHT22;2320;51.362;6.946;2022-11-20T05:15:24;2.70;99.90
4615;DHT22;2320;51.362;6.946;2022-11-20T05:17:50;2.70;99.90
4615;DHT22;2320;51.362;6.946;2022-11-20T05:20:16;2.60;99.90
4615;DHT22;2320;51.362;6.946;2022-11-20T05:22:42;2.70;99.90
4615;DHT22;2320;51.362;6.946;2022-11-20T05:25:07;2.70;99.90
4615;DHT22;2320;51.362;6.946;2022-11-20T05:27:33;2.70;99.90
4615;DHT22;2320;51.362;6.946;2022-11-20T05:29:58;2.80;99.90
4615;DHT22;2320;51.362;6.946;2022-11-20T05:32:24;2.70;99.90
4615;DHT22;2320;51.362;6.946;2022-11-20T05:34:53;2.80;99.90
4615;DHT22;2320;51.362;6.946;2022-11-20T05:37:19;2.80;99.90
4615;DHT22;2320;51.362;6.946;2022-11-20T05:39:44;2.90;99.90
4615;DHT22;2320;51.362;6.946;2022-11-20T05:42:10;2.90;99.90
4615;DHT22;2320;51.362;6.946;2022-11-20T05:44:53;3.00;99.90
4615;DHT22;2320;51.362;6.946;2022-11-20T05:47:19;3.10;99.90
4615;DHT22;2320;51.362;6.946;2022-11-20T05:49:44;3.00;99.90
4615;DHT22;2320;51.362;6.946;2022-11-20T05:52:10;3.10;99.90
4615;DHT22;2320;51.362;6.946;2022-11-20T05:54:35;3.20;99.90
4615;DHT22;2320;51.362;6.946;2022-11-20T05:57:01;3.10;99.90
4615;DHT22;2320;51.362;6.946;2022-11-20T05:59:26;3.00;99.90
4615;DHT22;2320;51.362;6.946;2022-11-20T06:01:52;2.90;99.90
4615;DHT22;2320;51.362;6.946;2022-11-20T06:04:17;2.90;99.90
4615;DHT22;2320;51.362;6.946;2022-11-20T06:06:43;3.00;99.90
4615;DHT22;2320;51.362;6.946;2022-11-20T06:09:08;3.00;99.90
4615;DHT22;2320;51.362;6.946;2022-11-20T06:11:34;3.00;99.90
4615;DHT22;2320;51.362;6.946;2022-11-20T06:13:59;3.00;99.90
4615;DHT22;2320;51.362;6.946;2022-11-20T06:16:25;3.10;99.90
4615;DHT22;2320;51.362;6.946;2022-11-20T06:18:50;3.30;99.90
4615;DHT22;2320;51.362;6.946;2022-11-20T06:21:17;3.30;99.90
4615;DHT22;2320;51.362;6.946;2022-11-20T06:23:42;3.20;99.90
4615;DHT22;2320;51.362;6.946;2022-11-20T06:26:09;3.00;99.90
4615;DHT22;2320;51.362;6.946;2022-11-20T06:28:35;3.00;99.90
4615;DHT22;2320;51.362;6.946;2022-11-20T06:31:00;3.10;99.90
4615;DHT22;2320;51.362;6.946;2022-11-20T06:33:26;3.00;99.90
4615;DHT22;2320;51.362;6.946;2022-11-20T06:35:52;2.90;99.90
4615;DHT22;2320;51.362;6.946;2022-11-20T06:38:20;3.00;99.90
4615;DHT22;2320;51.362;6.946;2022-11-20T06:40:46;2.90;99.90
4615;DHT22;2320;51.362;6.946;2022-11-20T06:43:11;3.10;99.90
4615;DHT22;2320;51.362;6.946;2022-11-20T06:45:37;3.10;99.90
4615;DHT22;2320;51.362;6.946;2022-11-20T06:48:03;3.30;99.90
4615;DHT22;2320;51.362;6.946;2022-11-20T06:50:28;3.30;99.90
4615;DHT22;2320;51.362;6.946;2022-11-20T06:52:54;3.40;99.90
4615;DHT22;2320;51.362;6.946;2022-11-20T06:55:19;3.40;99.90
4615;DHT22;2320;51.362;6.946;2022-11-20T06:57:45;3.30;99.90
4615;DHT22;2320;51.362;6.946;2022-11-20T07:00:10;3.40;99.90
4615;DHT22;2320;51.362;6.946;2022-11-20T07:02:36;3.50;99.90
4615;DHT22;2320;51.362;6.946;2022-11-20T07:05:02;3.50;99.90
4615;DHT22;2320;51.362;6.946;2022-11-20T07:07:27;3.30;99.90
4615;DHT22;2320;51.362;6.946;2022-11-20T07:09:53;3.30;99.90
4615;DHT22;2320;51.362;6.946;2022-11-20T07:12:18;3.40;99.90
4615;DHT22;2320;51.362;6.946;2022-11-20T07:14:44;3.20;99.90
4615;DHT22;2320;51.362;6.946;2022-11-20T07:17:09;3.10;99.90
4615;DHT22;2320;51.362;6.946;2022-11-20T07:19:35;3.40;99.90
4615;DHT22;2320;51.362;6.946;2022-11-20T07:22:00;3.40;99.90
4615;DHT22;2320;51.362;6.946;2022-11-20T07:24:26;3.60;99.90
4615;DHT22;2320;51.362;6.946;2022-11-20T07:26:51;3.50;99.90
4615;DHT22;2320;51.362;6.946;2022-11-20T07:29:17;3.40;99.90
4615;DHT22;2320;51.362;6.946;2022-11-20T07:31:42;3.60;99.90
4615;DHT22;2320;51.362;6.946;2022-11-20T07:34:08;3.60;99.90
4615;DHT22;2320;51.362;6.946;2022-11-20T07:36:33;3.60;99.90
4615;DHT22;2320;51.362;6.946;2022-11-20T07:38:59;3.50;99.90
4615;DHT22;2320;51.362;6.946;2022-11-20T07:41:25;3.50;99.90
4615;DHT22;2320;51.362;6.946;2022-11-20T07:43:50;3.50;99.90
4615;DHT22;2320;51.362;6.946;2022-11-20T07:46:15;3.60;99.90
4615;DHT22;2320;51.362;6.946;2022-11-20T07:48:41;3.70;99.90
4615;DHT22;2320;51.362;6.946;2022-11-20T07:51:06;4.40;99.90
4615;DHT22;2320;51.362;6.946;2022-11-20T07:53:32;5.20;99.90
4615;DHT22;2320;51.362;6.946;2022-11-20T07:56:01;5.80;99.90
4615;DHT22;2320;51.362;6.946;2022-11-20T07:58:27;6.40;99.90
4615;DHT22;2320;51.362;6.946;2022-11-20T08:00:53;6.80;99.90
4615;DHT22;2320;51.362;6.946;2022-11-20T08:03:19;6.80;99.90
4615;DHT22;2320;51.362;6.946;2022-11-20T08:05:44;6.90;99.90
4615;DHT22;2320;51.362;6.946;2022-11-20T08:08:10;6.90;99.90
4615;DHT22;2320;51.362;6.946;2022-11-20T08:10:35;6.30;99.90
4615;DHT22;2320;51.362;6.946;2022-11-20T08:13:01;5.90;99.90
4615;DHT22;2320;51.362;6.946;2022-11-20T08:15:47;5.80;99.90
4615;DHT22;2320;51.362;6.946;2022-11-20T08:18:13;5.30;99.90
4615;DHT22;2320;51.362;6.946;2022-11-20T08:20:38;5.00;99.90
4615;DHT22;2320;51.362;6.946;2022-11-20T08:23:04;4.90;99.90
4615;DHT22;2320;51.362;6.946;2022-11-20T08:25:33;4.60;99.90
4615;DHT22;2320;51.362;6.946;2022-11-20T08:28:00;4.50;99.90
4615;DHT22;2320;51.362;6.946;2022-11-20T08:30:26;4.40;99.90
4615;DHT22;2320;51.362;6.946;2022-11-20T08:32:52;4.60;99.90
4615;DHT22;2320;51.362;6.946;2022-11-20T08:35:17;4.60;99.90
4615;DHT22;2320;51.362;6.946;2022-11-20T08:37:45;4.50;99.90
4615;DHT22;2320;51.362;6.946;2022-11-20T08:40:11;4.60;99.90
4615;DHT22;2320;51.362;6.946;2022-11-20T08:42:36;4.50;99.90
4615;DHT22;2320;51.362;6.946;2022-11-20T08:45:02;4.40;99.90
4615;DHT22;2320;51.362;6.946;2022-11-20T08:47:28;4.50;99.90
4615;DHT22;2320;51.362;6.946;2022-11-20T08:49:53;4.70;99.90
4615;DHT22;2320;51.362;6.946;2022-11-20T08:52:19;4.70;99.90
4615;DHT22;2320;51.362;6.946;2022-11-20T08:54:44;4.70;99.90
4615;DHT22;2320;51.362;6.946;2022-11-20T08:57:10;4.90;99.90
4615;DHT22;2320;51.362;6.946;2022-11-20T08:59:35;4.80;99.90
4615;DHT22;2320;51.362;6.946;2022-11-20T09:02:01;4.90;99.90
4615;DHT22;2320;51.362;6.946;2022-11-20T09:04:26;5.10;99.90
4615;DHT22;2320;51.362;6.946;2022-11-20T09:06:51;5.20;99.90
4615;DHT22;2320;51.362;6.946;2022-11-20T09:09:17;5.10;99.90
4615;DHT22;2320;51.362;6.946;2022-11-20T09:11:44;5.20;99.90
4615;DHT22;2320;51.362;6.946;2022-11-20T09:14:09;5.40;99.90
4615;DHT22;2320;51.362;6.946;2022-11-20T09:16:35;5.40;99.90
4615;DHT22;2320;51.362;6.946;2022-11-20T09:19:00;5.40;99.90
4615;DHT22;2320;51.362;6.946;2022-11-20T09:21:26;5.60;99.90
4615;DHT22;2320;51.362;6.946;2022-11-20T09:23:52;5.40;99.90
4615;DHT22;2320;51.362;6.946;2022-11-20T09:26:17;5.40;99.90
4615;DHT22;2320;51.362;6.946;2022-11-20T09:28:42;5.50;99.90
4615;DHT22;2320;51.362;6.946;2022-11-20T09:31:09;5.50;99.90
4615;DHT22;2320;51.362;6.946;2022-11-20T09:33:40;5.40;99.90
4615;DHT22;2320;51.362;6.946;2022-11-20T09:36:06;5.60;99.90
4615;DHT22;2320;51.362;6.946;2022-11-20T09:38:31;5.70;99.90
4615;DHT22;2320;51.362;6.946;2022-11-20T09:41:04;5.40;99.90
4615;DHT22;2320;51.362;6.946;2022-11-20T09:48:29;5.60;99.90
4615;DHT22;2320;51.362;6.946;2022-11-20T09:56:13;6.00;99.90
4615;DHT22;2320;51.362;6.946;2022-11-20T09:58:43;5.90;99.90
4615;DHT22;2320;51.362;6.946;2022-11-20T10:01:43;6.00;99.90
4615;DHT22;2320;51.362;6.946;2022-11-20T10:04:04;6.00;99.90
4615;DHT22;2320;51.362;6.946;2022-11-20T10:06:37;6.00;99.90
4615;DHT22;2320;51.362;6.946;2022-11-20T10:14:16;5.90;99.90
4615;DHT22;2320;51.362;6.946;2022-11-20T10:24:44;6.20;99.90
4615;DHT22;2320;51.362;6.946;2022-11-20T10:29:42;6.50;99.90
4615;DHT22;2320;51.362;6.946;2022-11-20T10:32:15;6.50;99.90
4615;DHT22;2320;51.362;6.946;2022-11-20T10:35:01;6.50;99.90
4615;DHT22;2320;51.362;6.946;2022-11-20T10:37:30;6.80;99.90
4615;DHT22;2320;51.362;6.946;2022-11-20T10:42:42;6.70;99.90
4615;DHT22;2320;51.362;6.946;2022-11-20T10:47:49;6.60;99.90
4615;DHT22;2320;51.362;6.946;2022-11-20T10:50:16;6.80;99.90
4615;DHT22;2320;51.362;6.946;2022-11-20T10:55:54;6.90;99.90
4615;DHT22;2320;51.362;6.946;2022-11-20T11:01:02;6.90;99.90
4615;DHT22;2320;51.362;6.946;2022-11-20T11:03:28;7.00;99.90
4615;DHT22;2320;51.362;6.946;2022-11-20T11:05:55;6.90;99.90
4615;DHT22;2320;51.362;6.946;2022-11-20T11:08:33;7.10;99.90
4615;DHT22;2320;51.362;6.946;2022-11-20T11:11:00;7.20;99.90
4615;DHT22;2320;51.362;6.946;2022-11-20T11:13:28;7.40;99.90
4615;DHT22;2320;51.362;6.946;2022-11-20T11:15:55;7.40;99.90
4615;DHT22;2320;51.362;6.946;2022-11-20T11:18:24;7.50;99.90
4615;DHT22;2320;51.362;6.946;2022-11-20T11:20:51;7.40;99.90
4615;DHT22;2320;51.362;6.946;2022-11-20T11:23:56;7.30;99.90
4615;DHT22;2320;51.362;6.946;2022-11-20T11:26:18;7.20;99.90
4615;DHT22;2320;51.362;6.946;2022-11-20T11:29:00;7.20;99.90
4615;DHT22;2320;51.362;6.946;2022-11-20T11:31:30;7.10;99.90
4615;DHT22;2320;51.362;6.946;2022-11-20T11:34:05;7.00;99.90
4615;DHT22;2320;51.362;6.946;2022-11-20T11:36:31;6.90;99.90
4615;DHT22;2320;51.362;6.946;2022-11-20T11:38:57;6.80;99.90
4615;DHT22;2320;51.362;6.946;2022-11-20T11:41:23;6.80;99.90
4615;DHT22;2320;51.362;6.946;2022-11-20T11:44:00;6.90;99.90
4615;DHT22;2320;51.362;6.946;2022-11-20T11:46:53;6.70;99.90
4615;DHT22;2320;51.362;6.946;2022-11-20T11:49:19;6.80;99.90
4615;DHT22;2320;51.362;6.946;2022-11-20T11:52:30;6.60;99.90
4615;DHT22;2320;51.362;6.946;2022-11-20T11:56:58;6.70;99.90
4615;DHT22;2320;51.362;6.946;2022-11-20T11:59:34;6.90;99.90
4615;DHT22;2320;51.362;6.946;2022-11-20T12:02:12;6.90;99.90
4615;DHT22;2320;51.362;6.946;2022-11-20T12:04:45;7.00;99.90
4615;DHT22;2320;51.362;6.946;2022-11-20T12:07:36;6.60;99.90
4615;DHT22;2320;51.362;6.946;2022-11-20T12:09:57;6.50;99.90
4615;DHT22;2320;51.362;6.946;2022-11-20T12:15:23;6.40;99.90
4615;DHT22;2320;51.362;6.946;2022-11-20T12:17:50;6.60;99.90
4615;DHT22;2320;51.362;6.946;2022-11-20T12:20:16;6.70;99.90
4615;DHT22;2320;51.362;6.946;2022-11-20T12:25:29;6.70;99.90
4615;DHT22;2320;51.362;6.946;2022-11-20T12:28:02;6.80;99.90
4615;DHT22;2320;51.362;6.946;2022-11-20T12:30:32;6.70;99.90
4615;DHT22;2320;51.362;6.946;2022-11-20T12:38:31;6.70;99.90
4615;DHT22;2320;51.362;6.946;2022-11-20T12:41:03;6.60;99.90
4615;DHT22;2320;51.362;6.946;2022-11-20T12:43:43;6.50;99.90
4615;DHT22;2320;51.362;6.946;2022-11-20T12:46:36;6.80;99.90
4615;DHT22;2320;51.362;6.946;2022-11-20T12:49:23;6.80;99.90
4615;DHT22;2320;51.362;6.946;2022-11-20T12:54:51;6.80;99.90
4615;DHT22;2320;51.362;6.946;2022-11-20T13:00:01;6.80;99.90
4615;DHT22;2320;51.362;6.946;2022-11-20T13:02:30;6.80;99.90
4615;DHT22;2320;51.362;6.946;2022-11-20T13:05:08;6.90;99.90
4615;DHT22;2320;51.362;6.946;2022-11-20T13:07:37;6.80;99.90
4615;DHT22;2320;51.362;6.946;2022-11-20T13:10:02;6.80;99.90
4615;DHT22;2320;51.362;6.946;2022-11-20T13:18:01;6.80;99.90
4615;DHT22;2320;51.362;6.946;2022-11-20T13:20:28;6.80;99.90
4615;DHT22;2320;51.362;6.946;2022-11-20T13:22:55;6.80;99.90
4615;DHT22;2320;51.362;6.946;2022-11-20T13:25:29;6.50;99.90
4615;DHT22;2320;51.362;6.946;2022-11-20T13:27:56;6.50;99.90
4615;DHT22;2320;51.362;6.946;2022-11-20T13:30:25;6.60;99.90
4615;DHT22;2320;51.362;6.946;2022-11-20T13:36:03;6.40;99.90
4615;DHT22;2320;51.362;6.946;2022-11-20T13:38:10;6.40;99.90
4615;DHT22;2320;51.362;6.946;2022-11-20T13:40:37;6.30;99.90
4615;DHT22;2320;51.362;6.946;2022-11-20T13:45:53;6.40;99.90
4615;DHT22;2320;51.362;6.946;2022-11-20T13:48:23;6.10;99.90
4615;DHT22;2320;51.362;6.946;2022-11-20T13:51:02;6.00;99.90
4615;DHT22;2320;51.362;6.946;2022-11-20T14:01:24;6.20;99.90
4615;DHT22;2320;51.362;6.946;2022-11-20T14:03:51;6.00;99.90
4615;DHT22;2320;51.362;6.946;2022-11-20T14:06:22;6.00;99.90
4615;DHT22;2320;51.362;6.946;2022-11-20T14:08:49;6.10;99.90
4615;DHT22;2320;51.362;6.946;2022-11-20T14:11:16;5.90;99.90
4615;DHT22;2320;51.362;6.946;2022-11-20T14:13:52;5.80;99.90
4615;DHT22;2320;51.362;6.946;2022-11-20T14:16:19;5.90;99.90
4615;DHT22;2320;51.362;6.946;2022-11-20T14:18:45;6.00;99.90
4615;DHT22;2320;51.362;6.946;2022-11-20T14:21:10;6.10;99.90
4615;DHT22;2320;51.362;6.946;2022-11-20T14:23:36;5.90;99.90
4615;DHT22;2320;51.362;6.946;2022-11-20T14:26:01;6.00;99.90
4615;DHT22;2320;51.362;6.946;2022-11-20T14:28:28;6.20;99.90
4615;DHT22;2320;51.362;6.946;2022-11-20T14:30:54;6.00;99.90
4615;DHT22;2320;51.362;6.946;2022-11-20T14:33:20;6.00;99.90
4615;DHT22;2320;51.362;6.946;2022-11-20T14:35:51;6.00;99.90
4615;DHT22;2320;51.362;6.946;2022-11-20T14:38:18;6.00;99.90
4615;DHT22;2320;51.362;6.946;2022-11-20T14:40:45;5.90;99.90
4615;DHT22;2320;51.362;6.946;2022-11-20T14:43:24;5.90;99.90
4615;DHT22;2320;51.362;6.946;2022-11-20T14:45:52;5.80;99.90
4615;DHT22;2320;51.362;6.946;2022-11-20T14:48:22;5.80;99.90
4615;DHT22;2320;51.362;6.946;2022-11-20T14:50:49;5.90;99.90
4615;DHT22;2320;51.362;6.946;2022-11-20T14:53:21;5.90;99.90
4615;DHT22;2320;51.362;6.946;2022-11-20T14:55:53;5.70;99.90
4615;DHT22;2320;51.362;6.946;2022-11-20T14:58:21;5.80;99.90
4615;DHT22;2320;51.362;6.946;2022-11-20T15:00:54;5.80;99.90
4615;DHT22;2320;51.362;6.946;2022-11-20T15:03:19;6.00;99.90
4615;DHT22;2320;51.362;6.946;2022-11-20T15:05:46;6.00;99.90
4615;DHT22;2320;51.362;6.946;2022-11-20T15:08:12;6.00;99.90
4615;DHT22;2320;51.362;6.946;2022-11-20T15:10:37;5.90;99.90
4615;DHT22;2320;51.362;6.946;2022-11-20T15:13:14;5.90;99.90
4615;DHT22;2320;51.362;6.946;2022-11-20T15:18:10;5.90;99.90
4615;DHT22;2320;51.362;6.946;2022-11-20T15:20:36;5.90;99.90
4615;DHT22;2320;51.362;6.946;2022-11-20T15:23:02;6.00;99.90
4615;DHT22;2320;51.362;6.946;2022-11-20T15:25:27;6.00;99.90
4615;DHT22;2320;51.362;6.946;2022-11-20T15:27:56;6.10;99.90
4615;DHT22;2320;51.362;6.946;2022-11-20T15:30:21;6.10;99.90
4615;DHT22;2320;51.362;6.946;2022-11-20T15:32:47;6.20;99.90
4615;DHT22;2320;51.362;6.946;2022-11-20T15:35:13;6.20;99.90
4615;DHT22;2320;51.362;6.946;2022-11-20T15:37:39;6.10;99.90
4615;DHT22;2320;51.362;6.946;2022-11-20T15:40:05;5.90;99.90
4615;DHT22;2320;51.362;6.946;2022-11-20T15:42:31;5.90;99.90
4615;DHT22;2320;51.362;6.946;2022-11-20T15:44:57;6.00;99.90
4615;DHT22;2320;51.362;6.946;2022-11-20T15:47:27;6.00;99.90
4615;DHT22;2320;51.362;6.946;2022-11-20T15:49:53;6.00;99.90
4615;DHT22;2320;51.362;6.946;2022-11-20T15:52:18;5.90;99.90
4615;DHT22;2320;51.362;6.946;2022-11-20T15:54:44;6.00;99.90
4615;DHT22;2320;51.362;6.946;2022-11-20T15:57:09;6.10;99.90
4615;DHT22;2320;51.362;6.946;2022-11-20T15:59:35;6.00;99.90
4615;DHT22;2320;51.362;6.946;2022-11-20T16:02:08;6.00;99.90
4615;DHT22;2320;51.362;6.946;2022-11-20T16:04:34;6.00;99.90
4615;DHT22;2320;51.362;6.946;2022-11-20T16:06:59;6.10;99.90
4615;DHT22;2320;51.362;6.946;2022-11-20T16:09:25;6.00;99.90
4615;DHT22;2320;51.362;6.946;2022-11-20T16:11:50;6.10;99.90
4615;DHT22;2320;51.362;6.946;2022-11-20T16:14:16;6.20;99.90
4615;DHT22;2320;51.362;6.946;2022-11-20T16:17:00;6.10;99.90
4615;DHT22;2320;51.362;6.946;2022-11-20T16:19:26;6.10;99.90
4615;DHT22;2320;51.362;6.946;2022-11-20T16:21:52;6.30;99.90
4615;DHT22;2320;51.362;6.946;2022-11-20T16:24:17;6.30;99.90
4615;DHT22;2320;51.362;6.946;2022-11-20T16:26:43;6.20;99.90
4615;DHT22;2320;51.362;6.946;2022-11-20T16:29:08;6.30;99.90
4615;DHT22;2320;51.362;6.946;2022-11-20T16:31:35;6.30;99.90
4615;DHT22;2320;51.362;6.946;2022-11-20T16:34:02;6.30;99.90
4615;DHT22;2320;51.362;6.946;2022-11-20T16:36:28;6.30;99.90
4615;DHT22;2320;51.362;6.946;2022-11-20T16:38:55;6.40;99.90
4615;DHT22;2320;51.362;6.946;2022-11-20T16:41:21;6.40;99.90
4615;DHT22;2320;51.362;6.946;2022-11-20T16:43:50;6.30;99.90
4615;DHT22;2320;51.362;6.946;2022-11-20T16:46:17;6.30;99.90
4615;DHT22;2320;51.362;6.946;2022-11-20T16:48:43;6.40;99.90
4615;DHT22;2320;51.362;6.946;2022-11-20T16:51:11;6.40;99.90
4615;DHT22;2320;51.362;6.946;2022-11-20T16:53:37;6.30;99.90
4615;DHT22;2320;51.362;6.946;2022-11-20T16:56:12;6.30;99.90
4615;DHT22;2320;51.362;6.946;2022-11-20T16:58:40;6.30;99.90
4615;DHT22;2320;51.362;6.946;2022-11-20T17:01:06;6.30;99.90
4615;DHT22;2320;51.362;6.946;2022-11-20T17:03:35;6.20;99.90
4615;DHT22;2320;51.362;6.946;2022-11-20T17:06:01;6.30;99.90
4615;DHT22;2320;51.362;6.946;2022-11-20T17:08:27;6.30;99.90
4615;DHT22;2320;51.362;6.946;2022-11-20T17:10:54;6.20;99.90
4615;DHT22;2320;51.362;6.946;2022-11-20T17:13:20;6.20;99.90
4615;DHT22;2320;51.362;6.946;2022-11-20T17:15:45;6.20;99.90
4615;DHT22;2320;51.362;6.946;2022-11-20T17:18:11;6.20;99.90
4615;DHT22;2320;51.362;6.946;2022-11-20T17:20:37;6.20;99.90
4615;DHT22;2320;51.362;6.946;2022-11-20T17:23:02;6.30;99.90
4615;DHT22;2320;51.362;6.946;2022-11-20T17:25:30;6.30;99.90
4615;DHT22;2320;51.362;6.946;2022-11-20T17:27:56;6.20;99.90
4615;DHT22;2320;51.362;6.946;2022-11-20T17:30:21;6.30;99.90
4615;DHT22;2320;51.362;6.946;2022-11-20T17:32:47;6.20;99.90
4615;DHT22;2320;51.362;6.946;2022-11-20T17:35:12;6.20;99.90
4615;DHT22;2320;51.362;6.946;2022-11-20T17:37:38;6.30;99.90